Time;durP1;ratioP1;P1;durP2;ratioP2;P2;SDS_P1;SDS_P2;PMS_P1;PMS_P2;Temp;Humidity;BMP_temperature;BMP_pressure;BME280_temperature;BME280_humidity;BME280_pressure;Samples;Min_cycle;Max_cycle;Signal;HPM_P1;HPM_P2
2022/01/14 00:00:00;;;;;;;58.33;17.93;;;;;;;2.73;100.00;103725.84;5212983;28;20026;-79
2022/01/14 00:02:32;;;;;;;97.63;16.17;;;;;;;2.63;100.00;103709.25;5212695;28;20277;-79
2022/01/14 00:05:03;;;;;;;66.93;16.20;;;;;;;2.68;100.00;103719.69;5212651;28;20116;-79
2022/01/14 00:07:34;;;;;;;52.57;17.63;;;;;;;2.70;100.00;103730.97;5211899;28;20042;-79
2022/01/14 00:10:08;;;;;;;65.07;15.33;;;;;;;2.73;100.00;103723.25;5211618;28;20109;-79
2022/01/14 00:12:47;;;;;;;30.13;15.07;;;;;;;2.58;100.00;103711.75;5206712;28;20018;-79
2022/01/14 00:15:24;;;;;;;47.30;15.40;;;;;;;2.59;100.00;103717.78;5190762;28;20023;-79
2022/01/14 00:17:56;;;;;;;43.77;16.83;;;;;;;2.57;100.00;103725.53;5192406;28;20014;-79
2022/01/14 00:20:27;;;;;;;33.53;15.77;;;;;;;2.49;100.00;103708.97;5191391;28;20423;-79
2022/01/14 00:22:59;;;;;;;61.57;15.00;;;;;;;2.60;100.00;103719.56;5192227;28;20490;-79
2022/01/14 00:33:44;;;;;;;37.47;16.43;;;;;;;2.51;100.00;103704.72;5210734;28;20128;-79
2022/01/14 00:36:15;;;;;;;29.10;17.00;;;;;;;2.58;100.00;103691.06;5209322;28;20437;-79
2022/01/14 00:38:47;;;;;;;36.20;15.63;;;;;;;2.65;100.00;103702.41;5212057;28;20473;-78
2022/01/14 00:41:18;;;;;;;41.70;17.33;;;;;;;2.64;100.00;103700.63;5210940;28;20022;-80
2022/01/14 00:43:54;;;;;;;38.40;16.83;;;;;;;2.63;100.00;103689.44;5210261;28;20102;-79
2022/01/14 00:46:25;;;;;;;58.90;17.13;;;;;;;2.51;100.00;103689.19;5211911;28;20031;-79
2022/01/14 00:48:56;;;;;;;37.73;15.30;;;;;;;2.62;100.00;103689.38;5211725;28;20087;-79
2022/01/14 00:51:28;;;;;;;36.90;16.10;;;;;;;2.58;100.00;103680.72;5211840;28;20065;-79
2022/01/14 00:53:59;;;;;;;62.13;16.37;;;;;;;2.55;100.00;103680.63;5211431;28;20056;-79
2022/01/14 00:56:44;;;;;;;45.53;15.93;;;;;;;2.54;100.00;103668.53;5209372;28;20396;-79
2022/01/14 00:59:16;;;;;;;;;;;;;;;2.67;100.00;103661.91;5212045;28;20033;-79
2022/01/14 01:01:53;;;;;;;46.70;16.03;;;;;;;2.53;100.00;103652.13;5211599;28;19928;-79
2022/01/14 01:04:33;;;;;;;34.53;15.07;;;;;;;2.52;100.00;103653.00;5211503;28;20096;-79
2022/01/14 01:07:10;;;;;;;37.37;15.13;;;;;;;2.61;100.00;103644.53;5211600;28;20061;-79
2022/01/14 01:09:46;;;;;;;50.57;17.27;;;;;;;2.54;100.00;103647.84;5208623;28;20421;-79
2022/01/14 01:12:37;;;;;;;32.47;15.20;;;;;;;2.51;100.00;103653.81;5210172;28;20033;-79
2022/01/14 01:15:12;;;;;;;68.73;15.33;;;;;;;2.45;100.00;103652.81;5211262;28;20029;-78
2022/01/14 01:17:45;;;;;;;25.80;15.00;;;;;;;2.46;100.00;103639.06;5210424;28;20034;-79
2022/01/14 01:20:18;;;;;;;78.93;14.53;;;;;;;2.48;100.00;103647.75;5210898;28;20030;-79
2022/01/14 01:22:52;;;;;;;81.57;15.53;;;;;;;2.42;100.00;103636.44;5209721;28;20029;-78
2022/01/14 01:25:26;;;;;;;51.15;14.30;;;;;;;2.40;100.00;103640.69;5210083;28;20026;-77
2022/01/14 01:27:57;;;;;;;57.22;14.07;;;;;;;2.48;100.00;103648.59;5211517;28;20022;-79
2022/01/14 01:33:06;;;;;;;31.98;13.82;;;;;;;2.39;100.00;103644.09;5211045;28;20061;-79
2022/01/14 01:35:37;;;;;;;25.10;13.48;;;;;;;2.43;100.00;103639.88;5211032;28;20512;-79
2022/01/14 01:38:15;;;;;;;32.60;13.60;;;;;;;2.48;100.00;103637.38;5210818;28;20034;-80
2022/01/14 01:40:48;;;;;;;50.67;13.40;;;;;;;2.39;100.00;103638.94;5210019;28;20034;-79
2022/01/14 01:43:24;;;;;;;63.97;13.93;;;;;;;2.38;100.00;103649.25;5210958;28;20052;-79
2022/01/14 01:45:56;;;;;;;31.73;13.43;;;;;;;2.42;100.00;103638.13;5211088;28;20018;-79
2022/01/14 01:48:27;;;;;;;45.23;12.37;;;;;;;2.34;100.00;103624.19;5212571;28;20044;-79
2022/01/14 01:50:58;;;;;;;46.57;13.87;;;;;;;2.36;100.00;103627.66;5211553;28;20072;-78
2022/01/14 01:53:31;;;;;;;34.17;12.23;;;;;;;2.30;100.00;103623.25;5210807;28;20036;-78
2022/01/14 01:56:02;;;;;;;78.63;13.17;;;;;;;2.18;100.00;103631.63;5208339;28;20432;-78
2022/01/14 01:58:33;;;;;;;55.57;12.50;;;;;;;2.24;100.00;103628.28;5210598;28;20022;-79
2022/01/14 02:01:06;;;;;;;37.77;12.50;;;;;;;2.11;100.00;103627.16;5210509;28;20473;-79
2022/01/14 02:03:38;;;;;;;31.97;13.13;;;;;;;2.25;100.00;103637.78;5210341;28;20032;-79
2022/01/14 02:06:10;;;;;;;76.40;13.40;;;;;;;2.22;100.00;103641.16;5210316;28;20042;-78
2022/01/14 02:08:41;;;;;;;54.13;13.20;;;;;;;2.16;100.00;103630.72;5210055;28;20057;-79
2022/01/14 02:11:12;;;;;;;24.17;12.63;;;;;;;2.27;100.00;103630.94;5209854;28;20564;-78
2022/01/14 02:13:44;;;;;;;34.90;13.17;;;;;;;2.26;100.00;103626.59;5222967;22;20085;-78
2022/01/14 02:16:33;;;;;;;20.67;12.17;;;;;;;2.29;100.00;103624.06;5226644;28;20065;-78
2022/01/14 02:19:17;;;;;;;72.73;13.30;;;;;;;2.25;100.00;103630.03;5231285;28;20026;-78
2022/01/14 02:27:12;;;;;;;31.80;12.23;;;;;;;2.23;100.00;103618.78;5230984;28;20026;-78
2022/01/14 02:29:44;;;;;;;39.03;12.20;;;;;;;2.21;100.00;103617.88;5231077;28;20025;-78
2022/01/14 02:32:15;;;;;;;36.90;11.90;;;;;;;2.11;100.00;103615.09;5235920;28;20025;-78
2022/01/14 02:34:46;;;;;;;34.47;12.03;;;;;;;2.09;100.00;103590.94;5233713;28;20022;-78
2022/01/14 02:37:20;;;;;;;41.60;11.33;;;;;;;2.16;100.00;103597.09;5235246;28;20060;-78
2022/01/14 02:39:51;;;;;;;17.90;11.33;;;;;;;2.20;100.00;103590.28;5233466;28;20060;-72
2022/01/14 02:42:22;;;;;;;36.07;12.57;;;;;;;2.16;100.00;103600.53;5235022;28;20692;-79
2022/01/14 02:45:00;;;;;;;35.43;12.13;;;;;;;1.95;100.00;103594.94;5234989;28;20022;-80
2022/01/14 02:47:32;;;;;;;36.47;12.30;;;;;;;2.10;100.00;103604.72;5233515;28;20021;-79
2022/01/14 02:50:07;;;;;;;27.17;12.23;;;;;;;2.13;100.00;103604.81;5233548;28;20104;-78
2022/01/14 02:55:16;;;;;;;24.77;11.10;;;;;;;2.12;100.00;103585.81;5234448;28;20064;-78
2022/01/14 02:57:50;;;;;;;28.23;12.15;;;;;;;2.18;100.00;103592.84;5234496;28;20017;-79
2022/01/14 03:00:24;;;;;;;23.85;11.98;;;;;;;2.20;100.00;103595.44;5232945;28;20055;-78
2022/01/14 03:02:58;;;;;;;41.50;11.73;;;;;;;2.13;100.00;103591.88;5232892;28;20060;-78
2022/01/14 03:05:30;;;;;;;27.67;11.05;;;;;;;2.07;100.00;103578.81;5234476;28;20025;-79
2022/01/14 03:08:02;;;;;;;36.33;12.20;;;;;;;2.03;100.00;103601.13;5234417;28;20039;-78
2022/01/14 03:10:33;;;;;;;29.37;11.37;;;;;;;2.11;100.00;103596.97;5233590;28;20033;-79
2022/01/14 03:13:04;;;;;;;79.70;13.87;;;;;;;2.07;100.00;103595.19;5234275;28;20045;-79
2022/01/14 03:15:36;;;;;;;30.53;11.70;;;;;;;2.16;100.00;103597.09;5233729;28;20659;-79
2022/01/14 03:18:07;;;;;;;41.47;12.43;;;;;;;2.06;100.00;103583.09;5234572;28;20002;-79
2022/01/14 03:20:48;;;;;;;38.87;12.00;;;;;;;2.02;100.00;103591.66;5233991;28;20041;-79
2022/01/14 03:23:19;;;;;;;31.70;11.50;;;;;;;2.07;100.00;103587.44;5233368;28;20116;-79
2022/01/14 03:25:51;;;;;;;54.67;13.37;;;;;;;2.02;100.00;103599.41;5232974;28;20104;-80
2022/01/14 03:28:24;;;;;;;60.77;12.83;;;;;;;2.11;100.00;103599.56;5234154;28;20025;-79
2022/01/14 03:30:55;;;;;;;36.27;13.23;;;;;;;2.13;100.00;103597.03;5234148;28;20029;-79
2022/01/14 03:33:26;;;;;;;35.70;11.93;;;;;;;2.18;100.00;103585.06;5233836;28;20118;-79
2022/01/14 03:35:58;;;;;;;29.57;12.13;;;;;;;2.18;100.00;103592.84;5234168;28;20033;-79
2022/01/14 03:38:29;;;;;;;45.93;12.27;;;;;;;2.08;100.00;103602.09;5233529;28;20079;-79
2022/01/14 03:41:01;;;;;;;27.87;11.47;;;;;;;1.98;100.00;103595.00;5232166;28;20028;-79
2022/01/14 03:43:35;;;;;;;76.67;12.70;;;;;;;1.98;100.00;103589.81;5233117;28;20132;-79
2022/01/14 03:46:07;;;;;;;36.63;10.53;;;;;;;2.06;100.00;103583.09;5234061;28;20037;-78
2022/01/14 03:48:38;;;;;;;57.23;12.60;;;;;;;2.00;100.00;103586.44;5233593;28;20035;-78
2022/01/14 03:51:11;;;;;;;53.80;11.70;;;;;;;1.97;100.00;103581.22;5233409;28;20029;-79
2022/01/14 03:53:43;;;;;;;27.23;12.47;;;;;;;1.93;100.00;103581.97;5231497;28;20036;-79
2022/01/14 03:56:15;;;;;;;37.70;11.30;;;;;;;1.96;100.00;103591.50;5233532;28;20033;-79
2022/01/14 03:58:46;;;;;;;60.33;12.20;;;;;;;1.84;100.00;103595.56;5233662;28;20079;-79
2022/01/14 04:01:19;;;;;;;67.80;12.40;;;;;;;1.95;100.00;103598.41;5233182;28;20029;-79
2022/01/14 04:03:51;;;;;;;104.90;13.87;;;;;;;1.78;100.00;103592.88;5235582;28;20021;-79
2022/01/14 04:06:22;;;;;;;48.60;12.27;;;;;;;1.90;100.00;103584.50;5234903;28;20018;-79
2022/01/14 04:08:53;;;;;;;52.67;13.07;;;;;;;1.95;100.00;103594.94;5232558;28;20526;-79
2022/01/14 04:11:24;;;;;;;38.43;10.83;;;;;;;2.01;100.00;103605.38;5233168;28;20082;-79
2022/01/14 04:14:06;;;;;;;41.27;12.77;;;;;;;2.02;100.00;103596.81;5232806;28;20495;-81
2022/01/14 04:16:38;;;;;;;52.03;11.83;;;;;;;2.01;100.00;103590.75;5231709;28;20044;-78
2022/01/14 04:19:09;;;;;;;41.47;12.17;;;;;;;1.95;100.00;103589.75;5232901;28;20025;-79
2022/01/14 04:21:40;;;;;;;55.50;12.70;;;;;;;1.80;100.00;103586.00;5237284;28;20583;-80
2022/01/14 04:24:11;;;;;;;29.43;11.40;;;;;;;1.95;100.00;103584.59;5233185;28;20029;-79
2022/01/14 04:26:43;;;;;;;62.77;11.97;;;;;;;1.88;100.00;103584.47;5232614;28;20057;-79
2022/01/14 04:29:14;;;;;;;48.13;11.90;;;;;;;1.78;100.00;103583.38;5231987;28;20483;-79
2022/01/14 04:31:45;;;;;;;77.83;11.77;;;;;;;1.79;100.00;103579.97;5232299;28;20064;-78
2022/01/14 04:34:17;;;;;;;48.23;12.33;;;;;;;1.87;100.00;103585.28;5232921;28;20029;-79
2022/01/14 04:36:48;;;;;;;45.27;12.27;;;;;;;1.89;100.00;103581.03;5232654;28;20026;-79
2022/01/14 04:39:20;;;;;;;73.97;11.83;;;;;;;1.79;100.00;103576.50;5231754;28;20029;-79
2022/01/14 04:41:51;;;;;;;31.47;10.50;;;;;;;1.72;100.00;103569.47;5232245;28;20494;-71
2022/01/14 04:44:23;;;;;;;38.70;11.53;;;;;;;1.72;100.00;103572.03;5232579;28;20562;-79
2022/01/14 04:47:13;;;;;;;33.50;11.03;;;;;;;1.79;100.00;103561.00;5238121;28;20392;-80
2022/01/14 04:49:44;;;;;;;33.23;10.33;;;;;;;1.84;100.00;103555.94;5232922;28;20029;-79
2022/01/14 04:52:16;;;;;;;101.80;11.87;;;;;;;1.84;100.00;103550.75;5232547;28;20040;-79
2022/01/14 04:54:47;;;;;;;89.53;11.03;;;;;;;1.75;100.00;103551.44;5231135;28;20125;-79
2022/01/14 04:57:21;;;;;;;67.43;10.70;;;;;;;1.65;100.00;103551.25;5231264;28;20025;-79
2022/01/14 04:59:52;;;;;;;52.90;10.10;;;;;;;1.72;100.00;103546.22;5232383;28;20101;-79
2022/01/14 05:02:24;;;;;;;58.17;11.30;;;;;;;1.73;100.00;103547.97;5231656;28;20113;-79
2022/01/14 05:04:57;;;;;;;55.20;11.67;;;;;;;1.59;100.00;103535.59;5232217;28;20021;-78
2022/01/14 05:07:29;;;;;;;85.00;11.17;;;;;;;1.65;100.00;103540.91;5231698;28;20052;-79
2022/01/14 05:12:38;;;;;;;44.45;12.93;;;;;;;1.75;100.00;103538.50;5231731;28;20057;-79
2022/01/14 05:15:10;;;;;;;57.83;10.35;;;;;;;1.64;100.00;103521.06;5231951;28;20021;-79
2022/01/14 05:17:42;;;;;;;80.13;11.33;;;;;;;1.57;100.00;103532.13;5231743;28;20068;-79
2022/01/14 05:20:15;;;;;;;52.97;10.43;;;;;;;1.69;100.00;103531.53;5232232;28;20013;-78
2022/01/14 05:22:47;;;;;;;60.53;9.73;;;;;;;1.64;100.00;103521.06;5230429;28;20025;-77
2022/01/14 05:25:18;;;;;;;66.70;10.33;;;;;;;1.59;100.00;103534.75;5230856;28;20587;-78
2022/01/14 05:27:49;;;;;;;39.17;9.40;;;;;;;1.65;100.00;103529.72;5231809;28;20029;-78
2022/01/14 05:30:21;;;;;;;59.37;10.57;;;;;;;1.62;100.00;103519.31;5231365;28;20029;-78
2022/01/14 05:32:53;;;;;;;56.10;9.97;;;;;;;1.59;100.00;103527.84;5230240;28;20040;-79
2022/01/14 05:35:27;;;;;;;60.13;10.87;;;;;;;1.37;100.00;103532.56;5231779;28;20472;-79
2022/01/14 05:37:58;;;;;;;28.00;10.43;;;;;;;1.53;100.00;103514.81;5231349;28;20051;-79
2022/01/14 05:40:30;;;;;;;48.57;9.33;;;;;;;1.36;100.00;103515.34;5230612;28;20029;-79
2022/01/14 05:43:01;;;;;;;40.23;8.80;;;;;;;1.53;100.00;103530.31;5231096;28;20034;-79
2022/01/14 05:45:32;;;;;;;46.40;10.80;;;;;;;1.47;100.00;103523.28;5231353;28;20026;-79
2022/01/14 05:48:04;;;;;;;31.80;9.20;;;;;;;1.50;100.00;103527.66;5231299;28;20033;-81
2022/01/14 05:50:36;;;;;;;42.30;9.73;;;;;;;1.51;100.00;103521.66;5229980;28;20079;-78
2022/01/14 05:53:07;;;;;;;49.83;9.43;;;;;;;1.33;100.00;103513.53;5230240;28;20029;-78
2022/01/14 05:55:39;;;;;;;31.53;9.93;;;;;;;1.54;100.00;103506.22;5230003;28;20109;-79
2022/01/14 05:58:10;;;;;;;69.17;11.10;;;;;;;1.44;100.00;103506.03;5231377;28;20256;-81
2022/01/14 06:00:41;;;;;;;54.40;9.60;;;;;;;1.44;100.00;103503.47;5223766;28;20061;-81
2022/01/14 06:03:13;;;;;;;44.77;10.10;;;;;;;1.39;100.00;103507.66;5191032;28;20096;-81
2022/01/14 06:05:44;;;;;;;38.23;10.37;;;;;;;1.40;100.00;103513.66;5189754;28;20042;-79
2022/01/14 06:08:15;;;;;;;61.53;10.60;;;;;;;1.29;100.00;103513.44;5189223;28;20550;-76
2022/01/14 06:10:46;;;;;;;73.33;11.50;;;;;;;1.31;100.00;103509.16;5188588;28;20030;-79
2022/01/14 06:13:18;;;;;;;32.07;11.60;;;;;;;1.37;100.00;103517.06;5188136;28;20048;-81
2022/01/14 06:15:49;;;;;;;23.50;10.70;;;;;;;1.39;100.00;103515.41;5190084;28;20255;-79
2022/01/14 06:18:20;;;;;;;67.10;10.60;;;;;;;1.38;100.00;103518.78;5190415;28;20362;-82
2022/01/14 06:20:51;;;;;;;30.73;11.10;;;;;;;1.41;100.00;103521.47;5195591;28;20034;-77
2022/01/14 06:23:23;;;;;;;19.73;10.57;;;;;;;1.39;100.00;103520.56;5198070;28;20062;-77
2022/01/14 06:25:54;;;;;;;40.93;11.50;;;;;;;1.36;100.00;103514.44;5209383;28;20030;-77
2022/01/14 06:28:25;;;;;;;42.83;10.67;;;;;;;1.41;100.00;103521.47;5209301;28;20156;-76
2022/01/14 06:30:57;;;;;;;40.53;11.50;;;;;;;1.42;100.00;103527.50;5210646;28;20030;-76
2022/01/14 06:33:28;;;;;;;23.43;11.73;;;;;;;1.44;100.00;103526.69;5209781;28;20026;-82
2022/01/14 06:35:59;;;;;;;47.60;11.83;;;;;;;1.43;100.00;103537.84;5210718;28;20029;-81
2022/01/14 06:38:30;;;;;;;50.93;11.93;;;;;;;1.35;100.00;103516.16;5199462;28;20026;-82
2022/01/14 06:41:02;;;;;;;37.70;11.70;;;;;;;1.40;100.00;103518.81;5194671;28;20030;-81
2022/01/14 06:43:33;;;;;;;27.57;11.47;;;;;;;1.37;100.00;103509.31;5208377;28;20638;-82
2022/01/14 06:46:04;;;;;;;33.00;12.53;;;;;;;1.41;100.00;103510.25;5215713;28;20037;-81
2022/01/14 06:48:36;;;;;;;22.20;11.93;;;;;;;1.44;100.00;103511.19;5230567;28;20029;-81
2022/01/14 06:51:12;;;;;;;55.90;12.10;;;;;;;1.42;100.00;103494.78;5230754;28;20041;-80
2022/01/14 06:53:44;;;;;;;47.50;11.87;;;;;;;1.41;100.00;103505.97;5229997;28;20480;-81
2022/01/14 06:56:16;;;;;;;27.63;12.57;;;;;;;1.49;100.00;103513.88;5221788;28;20062;-81
2022/01/14 06:58:47;;;;;;;48.80;14.23;;;;;;;1.50;100.00;103512.19;5204531;28;20054;-82
2022/01/14 07:01:18;;;;;;;26.07;13.50;;;;;;;1.50;100.00;103504.44;5201397;28;20041;-81
2022/01/14 07:03:49;;;;;;;42.10;13.40;;;;;;;1.55;100.00;103519.16;5192917;28;20057;-81
2022/01/14 07:06:21;;;;;;;77.07;14.63;;;;;;;1.42;100.00;103517.16;5209555;28;20030;-81
2022/01/14 07:08:52;;;;;;;64.07;15.43;;;;;;;1.40;100.00;103511.97;5207511;28;20105;-79
2022/01/14 07:11:29;;;;;;;109.57;16.13;;;;;;;1.23;100.00;103527.06;5207858;28;20038;-79
2022/01/14 07:14:01;;;;;;;76.73;15.03;;;;;;;1.26;100.00;103528.84;5209123;28;20692;-78
2022/01/14 07:16:33;;;;;;;52.97;15.77;;;;;;;1.35;100.00;103535.94;5194111;28;20037;-76
2022/01/14 07:19:05;;;;;;;28.70;14.33;;;;;;;1.40;100.00;103535.19;5200022;28;20021;-74
2022/01/14 07:21:38;;;;;;;101.67;16.37;;;;;;;1.36;100.00;103536.00;5213416;28;20503;-77
2022/01/14 07:24:13;;;;;;;63.13;15.40;;;;;;;1.37;100.00;103545.47;5212881;28;20026;-78
2022/01/14 07:26:45;;;;;;;57.13;14.82;;;;;;;1.37;100.00;103544.59;5210249;28;20052;-83
2022/01/14 07:29:16;;;;;;;87.90;17.40;;;;;;;1.17;100.00;103548.44;5210423;28;20409;-85
2022/01/14 07:31:48;;;;;;;39.60;15.47;;;;;;;1.32;100.00;103531.59;5210203;28;20017;-84
2022/01/14 07:34:19;;;;;;;74.17;16.97;;;;;;;1.26;100.00;103523.69;5211325;28;20037;-84
2022/01/14 07:36:51;;;;;;;76.17;16.77;;;;;;;1.27;100.00;103528.91;5211933;28;20057;-84
2022/01/14 07:39:23;;;;;;;82.33;17.20;;;;;;;1.27;100.00;103538.34;5207835;28;20026;-84
2022/01/14 07:41:54;;;;;;;75.00;16.47;;;;;;;1.14;100.00;103543.22;5210471;28;20489;-83
2022/01/14 07:44:26;;;;;;;59.03;17.23;;;;;;;1.26;100.00;103542.63;5211683;28;20029;-83
2022/01/14 07:46:57;;;;;;;84.93;16.73;;;;;;;1.19;100.00;103544.19;5211539;28;20119;-78
2022/01/14 07:49:28;;;;;;;38.47;16.63;;;;;;;1.27;100.00;103538.34;5212121;28;20030;-77
2022/01/14 07:52:00;;;;;;;65.90;17.33;;;;;;;1.23;100.00;103526.19;5183641;28;20057;-75
2022/01/14 07:54:31;;;;;;;60.67;17.60;;;;;;;1.26;100.00;103536.59;5203189;28;20381;-77
2022/01/14 07:57:03;;;;;;;76.43;16.97;;;;;;;1.27;100.00;103528.91;5210160;28;20526;-77
2022/01/14 07:59:35;;;;;;;118.87;17.27;;;;;;;1.25;100.00;103535.75;5205726;28;20030;-77
2022/01/14 08:02:07;;;;;;;63.87;16.27;;;;;;;1.28;100.00;103522.00;5198757;28;20136;-76
2022/01/14 08:04:40;;;;;;;94.40;16.90;;;;;;;1.18;100.00;103519.25;5207566;28;20598;-76
2022/01/14 08:07:12;;;;;;;62.40;17.27;;;;;;;1.22;100.00;103527.03;5210552;28;20723;-76
2022/01/14 08:09:43;;;;;;;74.87;16.60;;;;;;;1.27;100.00;103530.59;5208321;28;20028;-77
2022/01/14 08:12:15;;;;;;;57.07;17.17;;;;;;;1.22;100.00;103545.13;5210742;28;20064;-77
2022/01/14 08:14:46;;;;;;;84.00;18.10;;;;;;;1.29;100.00;103547.00;5219610;28;20081;-77
2022/01/14 08:17:20;;;;;;;68.53;17.17;;;;;;;1.27;100.00;103536.66;5202774;28;20484;-75
2022/01/14 08:19:51;;;;;;;54.35;17.38;;;;;;;1.28;100.00;103527.16;5208846;28;20041;-72
2022/01/14 08:22:22;;;;;;;52.90;16.93;;;;;;;1.30;100.00;103528.97;5210641;28;20025;-82
2022/01/14 08:24:54;;;;;;;64.30;16.77;;;;;;;1.23;100.00;103511.59;5199423;28;20607;-81
2022/01/14 08:27:28;;;;;;;90.37;16.80;;;;;;;1.20;100.00;103501.19;5207870;28;20010;-80
2022/01/14 08:30:00;;;;;;;81.65;17.58;;;;;;;1.31;100.00;103529.81;5209022;28;20121;-80
2022/01/14 08:32:31;;;;;;;99.57;17.23;;;;;;;1.32;100.00;103534.16;5207434;28;20555;-79
2022/01/14 08:35:03;;;;;;;73.33;16.37;;;;;;;1.34;100.00;103514.41;5210711;28;20515;-78
2022/01/14 08:37:36;;;;;;;76.63;17.33;;;;;;;1.34;100.00;103517.00;5205286;28;20080;-78
2022/01/14 08:40:09;;;;;;;44.67;15.97;;;;;;;1.31;100.00;103512.63;5201588;28;20022;-74
2022/01/14 08:42:44;;;;;;;86.67;17.47;;;;;;;1.30;100.00;103522.91;5203920;28;20114;-73
2022/01/14 08:45:18;;;;;;;;;;;;;;;1.49;100.00;103531.97;5215965;28;20030;-81
2022/01/14 08:47:52;;;;;;;42.03;17.27;;;;;;;1.42;100.00;103543.88;5209731;28;19913;-74
2022/01/14 08:50:29;;;;;;;41.95;18.05;;;;;;;1.41;100.00;103551.59;5210327;28;20026;-79
2022/01/14 08:53:01;;;;;;;57.80;17.30;;;;;;;1.53;100.00;103556.16;5208542;28;20109;-81
2022/01/14 08:55:34;;;;;;;67.70;18.27;;;;;;;1.55;100.00;103542.41;5205208;28;20173;-74
2022/01/14 08:58:06;;;;;;;65.40;18.57;;;;;;;1.62;100.00;103530.53;5210082;28;20113;-74
2022/01/14 09:00:37;;;;;;;65.20;18.30;;;;;;;1.53;100.00;103504.50;5209589;28;20024;-74
2022/01/14 09:03:09;;;;;;;61.57;17.57;;;;;;;1.62;100.00;103515.03;5206674;28;20038;-74
2022/01/14 09:05:40;;;;;;;75.37;19.00;;;;;;;1.57;100.00;103516.63;5209259;28;20429;-75
2022/01/14 09:08:12;;;;;;;67.00;19.00;;;;;;;1.60;100.00;103526.16;5208364;28;20041;-75
2022/01/14 09:10:43;;;;;;;72.67;19.30;;;;;;;1.49;100.00;103533.66;5209384;28;20034;-74
2022/01/14 09:13:15;;;;;;;73.03;17.80;;;;;;;1.55;100.00;103514.00;5205957;28;20058;-74
2022/01/14 09:15:47;;;;;;;52.33;18.77;;;;;;;1.69;100.00;103539.28;5209482;28;20022;-74
2022/01/14 09:18:18;;;;;;;103.00;18.97;;;;;;;1.62;100.00;103530.53;5209839;28;20498;-75
2022/01/14 09:20:49;;;;;;;67.40;18.50;;;;;;;1.66;100.00;103521.97;5208765;28;20488;-73
2022/01/14 09:23:24;;;;;;;66.47;20.30;;;;;;;1.69;100.00;103526.38;5204306;28;20061;-75
2022/01/14 09:25:56;;;;;;;66.03;17.83;;;;;;;1.75;100.00;103535.94;5208952;28;20432;-74
2022/01/14 09:28:28;;;;;;;107.10;20.10;;;;;;;1.68;100.00;103525.47;5208177;28;20116;-74
2022/01/14 09:30:59;;;;;;;51.03;20.07;;;;;;;1.77;100.00;103532.56;5207651;28;20049;-74
2022/01/14 09:33:31;;;;;;;52.40;19.67;;;;;;;1.72;100.00;103530.69;5205642;28;20030;-74
2022/01/14 09:36:02;;;;;;;62.20;19.90;;;;;;;1.82;100.00;103535.22;5206617;28;20068;-74
2022/01/14 09:38:33;;;;;;;78.93;19.77;;;;;;;1.79;100.00;103542.91;5199401;28;20318;-75
2022/01/14 09:41:07;;;;;;;47.80;19.70;;;;;;;1.85;100.00;103524.09;5209086;28;20029;-75
2022/01/14 09:43:39;;;;;;;36.53;18.83;;;;;;;1.92;100.00;103524.22;5205839;28;20048;-74
2022/01/14 09:46:11;;;;;;;48.50;18.37;;;;;;;1.92;100.00;103539.75;5208711;28;20465;-74
2022/01/14 09:48:42;;;;;;;38.63;19.57;;;;;;;1.87;100.00;103525.84;5207848;28;20060;-75
2022/01/14 09:51:14;;;;;;;45.03;19.83;;;;;;;2.13;100.00;103542.75;5208045;28;20049;-74
2022/01/14 09:53:45;;;;;;;34.63;19.50;;;;;;;2.21;100.00;103542.88;5217681;28;20018;-74
2022/01/14 09:56:20;;;;;;;49.83;19.53;;;;;;;2.16;100.00;103548.81;5209405;28;20029;-74
2022/01/14 09:58:52;;;;;;;39.10;20.08;;;;;;;2.13;100.00;103548.75;5216074;28;20064;-75
2022/01/14 10:01:23;;;;;;;38.43;20.03;;;;;;;2.30;100.00;103556.84;5207248;28;20488;-74
2022/01/14 10:04:01;;;;;;;40.77;22.43;;;;;;;2.27;100.00;103564.56;5204869;28;20420;-75
2022/01/14 10:06:51;;;;;;;34.37;20.73;;;;;;;2.21;100.00;103560.97;5208736;28;20098;-75
2022/01/14 10:09:29;;;;;;;42.80;19.10;;;;;;;2.26;100.00;103556.75;5207590;28;20029;-74
2022/01/14 10:12:10;;;;;;;31.50;20.87;;;;;;;2.29;100.00;103549.06;5205954;28;20079;-74
2022/01/14 10:15:08;;;;;;;36.17;21.23;;;;;;;2.38;100.00;103564.75;5208258;28;20092;-74
2022/01/14 10:17:42;;;;;;;40.73;19.27;;;;;;;2.27;100.00;103577.47;5208144;28;20117;-74
2022/01/14 10:20:14;;;;;;;41.95;19.50;;;;;;;2.37;100.00;103570.78;5208341;28;20121;-74
2022/01/14 10:22:48;;;;;;;44.53;20.23;;;;;;;2.21;100.00;103572.22;5212448;28;20123;-74
2022/01/14 10:25:20;;;;;;;42.57;23.30;;;;;;;2.27;100.00;103579.22;5212547;28;20026;-75
2022/01/14 10:27:54;;;;;;;33.17;20.37;;;;;;;2.42;100.00;103566.56;5207485;28;20022;-75
2022/01/14 10:30:34;;;;;;;42.23;21.10;;;;;;;2.40;100.00;103569.97;5208595;28;20045;-74
2022/01/14 10:33:08;;;;;;;37.70;22.03;;;;;;;2.46;100.00;103564.91;5204519;28;20032;-74
2022/01/14 10:35:42;;;;;;;33.35;20.80;;;;;;;2.52;100.00;103564.16;5207226;28;21102;-74
2022/01/14 10:38:16;;;;;;;35.78;21.35;;;;;;;2.41;100.00;103554.47;5207451;28;20065;-74
2022/01/14 10:40:58;;;;;;;34.67;23.25;;;;;;;2.56;100.00;103568.53;5206942;28;20058;-74
2022/01/14 10:43:33;;;;;;;36.87;20.73;;;;;;;2.58;100.00;103559.09;5205549;28;20497;-75
2022/01/14 10:46:09;;;;;;;33.28;21.88;;;;;;;2.64;100.00;103558.31;5208385;28;20034;-75
2022/01/14 10:48:46;;;;;;;31.23;20.73;;;;;;;2.69;100.00;103545.47;5208292;28;20045;-74
2022/01/14 10:51:18;;;;;;;34.43;21.13;;;;;;;2.69;100.00;103548.06;5210036;28;20036;-75
2022/01/14 10:53:53;;;;;;;39.00;21.47;;;;;;;2.62;100.00;103537.59;5223173;28;20037;-74
2022/01/14 10:56:27;;;;;;;34.67;21.70;;;;;;;2.60;100.00;103544.44;5222342;28;20037;-74
2022/01/14 10:58:59;;;;;;;32.30;21.35;;;;;;;2.69;100.00;103548.06;5213170;28;20053;-75
2022/01/14 11:01:32;;;;;;;33.93;22.10;;;;;;;2.60;100.00;103518.56;5212943;28;20112;-74
2022/01/14 11:04:11;;;;;;;30.47;21.23;;;;;;;2.82;100.00;103541.38;5207155;28;20053;-75
2022/01/14 11:06:42;;;;;;;34.83;22.07;;;;;;;2.74;100.00;103543.84;5211792;28;20029;-75
2022/01/14 11:09:17;;;;;;;34.30;20.70;;;;;;;2.85;100.00;103533.66;5209182;28;20540;-74
2022/01/14 11:11:50;;;;;;;29.90;20.13;;;;;;;2.89;100.00;103535.44;5210990;28;20025;-75
2022/01/14 11:14:22;;;;;;;34.10;22.23;;;;;;;2.88;100.00;103531.13;5221382;28;20112;-75
2022/01/14 11:16:53;;;;;;;31.70;21.90;;;;;;;2.92;100.00;103522.53;5210512;28;20033;-74
2022/01/14 11:19:25;;;;;;;37.10;22.47;;;;;;;3.01;100.00;103527.88;5213928;28;20555;-73
2022/01/14 11:24:47;;;;;;;33.57;22.07;;;;;;;3.02;100.00;103513.19;5227847;28;20127;-75
2022/01/14 11:27:20;;;;;;;28.30;20.97;;;;;;;3.11;100.00;103520.22;5215806;28;20101;-75
2022/01/14 11:29:57;;;;;;;28.13;21.10;;;;;;;3.06;100.00;103511.53;5193917;28;20092;-73
2022/01/14 11:32:52;;;;;;;31.57;22.03;;;;;;;3.16;100.00;103528.94;5208544;28;20025;-77
2022/01/14 11:35:25;;;;;;;27.77;21.05;;;;;;;3.14;100.00;103521.16;5210528;28;20029;-75
2022/01/14 11:37:57;;;;;;;28.73;21.00;;;;;;;3.14;100.00;103515.97;5210735;28;20026;-75
2022/01/14 11:40:48;;;;;;;29.90;21.77;;;;;;;3.19;100.00;103521.25;5207077;28;20080;-78
2022/01/14 11:43:43;;;;;;;34.20;24.13;;;;;;;3.24;100.00;103526.47;5204378;28;20029;-74
2022/01/14 11:46:34;;;;;;;30.92;21.48;;;;;;;3.28;100.00;103528.28;5209365;28;20054;-75
2022/01/14 11:49:38;;;;;;;31.27;22.67;;;;;;;3.27;100.00;103529.09;5206611;28;20076;-75
2022/01/14 11:52:09;;;;;;;30.33;20.97;;;;;;;3.12;100.00;103519.41;5203012;28;20088;-76
2022/01/14 11:54:46;;;;;;;33.10;23.07;;;;;;;3.28;100.00;103519.63;5200374;28;20650;-76
2022/01/14 11:57:42;;;;;;;31.87;21.27;;;;;;;3.35;100.00;103524.06;5205670;28;20526;-76
2022/01/14 12:00:38;;;;;;;30.10;22.90;;;;;;;3.35;100.00;103513.69;5203623;28;20488;-75